sensor_id;sensor_type;location;lat;lon;timestamp;P1;durP1;ratioP1;P2;durP2;ratioP2
8887;SDS011;4480;52.370;9.748;2022-10-03T00:01:11;21.75;;;3.42;;
8887;SDS011;4480;52.370;9.748;2022-10-03T00:04:08;9.10;;;2.95;;
8887;SDS011;4480;52.370;9.748;2022-10-03T00:06:49;9.63;;;2.85;;
8887;SDS011;4480;52.370;9.748;2022-10-03T00:09:33;11.30;;;2.80;;
8887;SDS011;4480;52.370;9.748;2022-10-03T00:12:11;5.05;;;2.40;;
8887;SDS011;4480;52.370;9.748;2022-10-03T00:14:43;6.30;;;2.65;;
8887;SDS011;4480;52.370;9.748;2022-10-03T00:17:20;10.60;;;3.00;;
8887;SDS011;4480;52.370;9.748;2022-10-03T00:19:58;10.10;;;2.95;;
8887;SDS011;4480;52.370;9.748;2022-10-03T00:22:33;14.25;;;2.97;;
8887;SDS011;4480;52.370;9.748;2022-10-03T00:25:12;7.50;;;3.50;;
8887;SDS011;4480;52.370;9.748;2022-10-03T00:27:46;10.85;;;3.60;;
8887;SDS011;4480;52.370;9.748;2022-10-03T00:30:20;8.32;;;2.92;;
8887;SDS011;4480;52.370;9.748;2022-10-03T00:35:47;20.05;;;4.18;;
8887;SDS011;4480;52.370;9.748;2022-10-03T00:38:33;8.77;;;2.75;;
8887;SDS011;4480;52.370;9.748;2022-10-03T00:47:12;18.23;;;3.55;;
8887;SDS011;4480;52.370;9.748;2022-10-03T00:53:16;9.47;;;2.17;;
8887;SDS011;4480;52.370;9.748;2022-10-03T00:56:02;12.52;;;2.63;;
8887;SDS011;4480;52.370;9.748;2022-10-03T00:58:39;11.15;;;2.75;;
8887;SDS011;4480;52.370;9.748;2022-10-03T01:01:20;10.68;;;3.00;;
8887;SDS011;4480;52.370;9.748;2022-10-03T01:03:52;11.70;;;2.65;;
8887;SDS011;4480;52.370;9.748;2022-10-03T01:06:31;16.17;;;3.85;;
8887;SDS011;4480;52.370;9.748;2022-10-03T01:09:08;13.93;;;3.50;;
8887;SDS011;4480;52.370;9.748;2022-10-03T01:11:57;9.15;;;2.75;;
8887;SDS011;4480;52.370;9.748;2022-10-03T01:14:39;14.38;;;3.13;;
8887;SDS011;4480;52.370;9.748;2022-10-03T01:17:17;12.45;;;3.05;;
8887;SDS011;4480;52.370;9.748;2022-10-03T01:23:07;15.52;;;2.95;;
8887;SDS011;4480;52.370;9.748;2022-10-03T01:25:50;10.07;;;3.20;;
8887;SDS011;4480;52.370;9.748;2022-10-03T01:28:33;9.55;;;3.95;;
8887;SDS011;4480;52.370;9.748;2022-10-03T01:31:24;12.00;;;2.80;;
8887;SDS011;4480;52.370;9.748;2022-10-03T01:33:58;13.05;;;3.25;;
8887;SDS011;4480;52.370;9.748;2022-10-03T01:36:30;4.75;;;2.47;;
8887;SDS011;4480;52.370;9.748;2022-10-03T01:39:01;14.10;;;3.05;;
8887;SDS011;4480;52.370;9.748;2022-10-03T01:41:40;13.13;;;3.45;;
8887;SDS011;4480;52.370;9.748;2022-10-03T01:44:15;14.45;;;3.08;;
8887;SDS011;4480;52.370;9.748;2022-10-03T01:46:49;9.98;;;2.50;;
8887;SDS011;4480;52.370;9.748;2022-10-03T01:49:21;15.00;;;3.47;;
8887;SDS011;4480;52.370;9.748;2022-10-03T01:51:57;14.30;;;3.20;;
8887;SDS011;4480;52.370;9.748;2022-10-03T01:54:29;9.48;;;3.00;;
8887;SDS011;4480;52.370;9.748;2022-10-03T01:57:03;12.90;;;3.15;;
8887;SDS011;4480;52.370;9.748;2022-10-03T01:59:40;18.60;;;3.53;;
8887;SDS011;4480;52.370;9.748;2022-10-03T02:02:15;7.88;;;2.97;;
8887;SDS011;4480;52.370;9.748;2022-10-03T02:04:50;13.55;;;3.30;;
8887;SDS011;4480;52.370;9.748;2022-10-03T02:07:26;10.25;;;2.97;;
8887;SDS011;4480;52.370;9.748;2022-10-03T02:10:02;10.13;;;2.72;;
8887;SDS011;4480;52.370;9.748;2022-10-03T02:12:38;12.52;;;2.50;;
8887;SDS011;4480;52.370;9.748;2022-10-03T02:15:10;9.40;;;2.55;;
8887;SDS011;4480;52.370;9.748;2022-10-03T02:17:45;14.38;;;3.30;;
8887;SDS011;4480;52.370;9.748;2022-10-03T02:20:21;10.20;;;2.83;;
8887;SDS011;4480;52.370;9.748;2022-10-03T02:22:53;9.35;;;2.85;;
8887;SDS011;4480;52.370;9.748;2022-10-03T02:25:25;10.85;;;3.35;;
8887;SDS011;4480;52.370;9.748;2022-10-03T02:28:18;8.48;;;3.00;;
8887;SDS011;4480;52.370;9.748;2022-10-03T02:31:34;8.35;;;3.92;;
8887;SDS011;4480;52.370;9.748;2022-10-03T02:34:23;12.35;;;2.88;;
8887;SDS011;4480;52.370;9.748;2022-10-03T02:40:08;11.75;;;2.72;;
8887;SDS011;4480;52.370;9.748;2022-10-03T02:43:24;13.63;;;2.88;;
8887;SDS011;4480;52.370;9.748;2022-10-03T02:46:36;7.82;;;2.72;;
8887;SDS011;4480;52.370;9.748;2022-10-03T02:49:45;13.70;;;2.63;;
8887;SDS011;4480;52.370;9.748;2022-10-03T02:52:43;10.95;;;2.85;;
8887;SDS011;4480;52.370;9.748;2022-10-03T02:56:05;12.60;;;4.13;;
8887;SDS011;4480;52.370;9.748;2022-10-03T03:02:27;8.73;;;2.47;;
8887;SDS011;4480;52.370;9.748;2022-10-03T03:05:21;13.15;;;3.47;;
8887;SDS011;4480;52.370;9.748;2022-10-03T03:08:05;5.97;;;2.05;;
8887;SDS011;4480;52.370;9.748;2022-10-03T03:11:03;13.25;;;2.70;;
8887;SDS011;4480;52.370;9.748;2022-10-03T03:14:00;8.88;;;2.30;;
8887;SDS011;4480;52.370;9.748;2022-10-03T03:17:06;12.35;;;3.50;;
8887;SDS011;4480;52.370;9.748;2022-10-03T03:19:56;13.10;;;2.97;;
8887;SDS011;4480;52.370;9.748;2022-10-03T03:22:40;11.85;;;4.00;;
8887;SDS011;4480;52.370;9.748;2022-10-03T03:25:28;12.63;;;3.22;;
8887;SDS011;4480;52.370;9.748;2022-10-03T03:28:12;11.82;;;3.28;;
8887;SDS011;4480;52.370;9.748;2022-10-03T03:30:48;14.50;;;3.40;;
8887;SDS011;4480;52.370;9.748;2022-10-03T03:33:25;14.52;;;3.35;;
8887;SDS011;4480;52.370;9.748;2022-10-03T03:36:01;6.45;;;3.08;;
8887;SDS011;4480;52.370;9.748;2022-10-03T03:38:37;17.23;;;3.10;;
8887;SDS011;4480;52.370;9.748;2022-10-03T03:41:17;7.90;;;2.55;;
8887;SDS011;4480;52.370;9.748;2022-10-03T03:44:01;10.15;;;3.10;;
8887;SDS011;4480;52.370;9.748;2022-10-03T03:46:43;7.00;;;2.40;;
8887;SDS011;4480;52.370;9.748;2022-10-03T03:49:37;13.18;;;3.20;;
8887;SDS011;4480;52.370;9.748;2022-10-03T03:52:21;9.32;;;2.83;;
8887;SDS011;4480;52.370;9.748;2022-10-03T03:55:07;19.38;;;3.55;;
8887;SDS011;4480;52.370;9.748;2022-10-03T03:58:04;9.18;;;3.28;;
8887;SDS011;4480;52.370;9.748;2022-10-03T04:00:43;9.82;;;2.70;;
8887;SDS011;4480;52.370;9.748;2022-10-03T04:03:24;7.03;;;2.45;;
8887;SDS011;4480;52.370;9.748;2022-10-03T04:06:03;12.98;;;3.13;;
8887;SDS011;4480;52.370;9.748;2022-10-03T04:10:24;8.20;;;2.35;;
8887;SDS011;4480;52.370;9.748;2022-10-03T04:13:01;14.02;;;3.53;;
8887;SDS011;4480;52.370;9.748;2022-10-03T04:15:54;6.47;;;2.30;;
8887;SDS011;4480;52.370;9.748;2022-10-03T04:18:40;8.85;;;3.30;;
8887;SDS011;4480;52.370;9.748;2022-10-03T04:24:34;7.78;;;2.33;;
8887;SDS011;4480;52.370;9.748;2022-10-03T04:31:02;11.02;;;2.80;;
8887;SDS011;4480;52.370;9.748;2022-10-03T04:33:50;9.32;;;3.40;;
8887;SDS011;4480;52.370;9.748;2022-10-03T04:36:35;11.68;;;3.60;;
8887;SDS011;4480;52.370;9.748;2022-10-03T04:39:21;12.85;;;3.20;;
8887;SDS011;4480;52.370;9.748;2022-10-03T04:41:55;14.70;;;3.28;;
8887;SDS011;4480;52.370;9.748;2022-10-03T04:44:31;8.90;;;2.97;;
8887;SDS011;4480;52.370;9.748;2022-10-03T04:47:13;5.10;;;2.47;;
8887;SDS011;4480;52.370;9.748;2022-10-03T04:49:44;12.32;;;2.90;;
8887;SDS011;4480;52.370;9.748;2022-10-03T04:52:18;13.32;;;2.80;;
8887;SDS011;4480;52.370;9.748;2022-10-03T04:54:53;8.70;;;2.92;;
8887;SDS011;4480;52.370;9.748;2022-10-03T04:57:29;12.75;;;2.85;;
8887;SDS011;4480;52.370;9.748;2022-10-03T05:00:03;10.68;;;3.30;;
8887;SDS011;4480;52.370;9.748;2022-10-03T05:02:47;9.95;;;2.65;;
8887;SDS011;4480;52.370;9.748;2022-10-03T05:05:26;4.82;;;2.67;;
8887;SDS011;4480;52.370;9.748;2022-10-03T05:08:27;8.98;;;3.22;;
8887;SDS011;4480;52.370;9.748;2022-10-03T05:11:03;11.55;;;4.05;;
8887;SDS011;4480;52.370;9.748;2022-10-03T05:13:43;14.25;;;3.67;;
8887;SDS011;4480;52.370;9.748;2022-10-03T05:16:24;16.08;;;3.10;;
8887;SDS011;4480;52.370;9.748;2022-10-03T05:19:17;19.35;;;3.30;;
8887;SDS011;4480;52.370;9.748;2022-10-03T05:22:00;5.53;;;2.60;;
8887;SDS011;4480;52.370;9.748;2022-10-03T05:24:32;13.60;;;3.45;;
8887;SDS011;4480;52.370;9.748;2022-10-03T05:27:06;10.52;;;3.38;;
8887;SDS011;4480;52.370;9.748;2022-10-03T05:29:46;17.27;;;3.63;;
8887;SDS011;4480;52.370;9.748;2022-10-03T05:32:25;14.18;;;3.70;;
8887;SDS011;4480;52.370;9.748;2022-10-03T05:35:02;11.70;;;3.10;;
8887;SDS011;4480;52.370;9.748;2022-10-03T05:38:02;5.88;;;2.78;;
8887;SDS011;4480;52.370;9.748;2022-10-03T05:40:42;9.38;;;2.70;;
8887;SDS011;4480;52.370;9.748;2022-10-03T05:43:22;7.88;;;3.08;;
8887;SDS011;4480;52.370;9.748;2022-10-03T05:45:53;7.18;;;2.70;;
8887;SDS011;4480;52.370;9.748;2022-10-03T05:48:30;12.85;;;3.47;;
8887;SDS011;4480;52.370;9.748;2022-10-03T05:51:25;9.50;;;3.05;;
8887;SDS011;4480;52.370;9.748;2022-10-03T05:54:19;9.40;;;3.10;;
8887;SDS011;4480;52.370;9.748;2022-10-03T05:57:23;6.47;;;2.67;;
8887;SDS011;4480;52.370;9.748;2022-10-03T06:00:03;21.52;;;3.25;;
8887;SDS011;4480;52.370;9.748;2022-10-03T06:02:48;13.35;;;2.83;;
8887;SDS011;4480;52.370;9.748;2022-10-03T06:05:58;12.23;;;3.00;;
8887;SDS011;4480;52.370;9.748;2022-10-03T06:08:42;12.18;;;2.97;;
8887;SDS011;4480;52.370;9.748;2022-10-03T06:11:17;7.05;;;3.10;;
8887;SDS011;4480;52.370;9.748;2022-10-03T06:14:10;12.63;;;2.22;;
8887;SDS011;4480;52.370;9.748;2022-10-03T06:16:51;15.95;;;3.50;;
8887;SDS011;4480;52.370;9.748;2022-10-03T06:19:31;14.80;;;2.53;;
8887;SDS011;4480;52.370;9.748;2022-10-03T06:22:26;10.80;;;2.45;;
8887;SDS011;4480;52.370;9.748;2022-10-03T06:25:24;7.05;;;2.60;;
8887;SDS011;4480;52.370;9.748;2022-10-03T06:28:21;11.32;;;3.13;;
8887;SDS011;4480;52.370;9.748;2022-10-03T06:31:12;16.75;;;2.97;;
8887;SDS011;4480;52.370;9.748;2022-10-03T06:34:09;10.82;;;3.00;;
8887;SDS011;4480;52.370;9.748;2022-10-03T06:37:04;8.88;;;2.35;;
8887;SDS011;4480;52.370;9.748;2022-10-03T06:42:51;10.35;;;2.95;;
8887;SDS011;4480;52.370;9.748;2022-10-03T06:48:39;12.07;;;2.43;;
8887;SDS011;4480;52.370;9.748;2022-10-03T06:57:49;12.57;;;3.00;;
8887;SDS011;4480;52.370;9.748;2022-10-03T07:00:42;7.93;;;2.10;;
8887;SDS011;4480;52.370;9.748;2022-10-03T07:03:37;8.10;;;2.67;;
8887;SDS011;4480;52.370;9.748;2022-10-03T07:06:37;6.70;;;2.20;;
8887;SDS011;4480;52.370;9.748;2022-10-03T07:09:26;6.63;;;2.63;;
8887;SDS011;4480;52.370;9.748;2022-10-03T07:12:29;6.40;;;2.10;;
8887;SDS011;4480;52.370;9.748;2022-10-03T07:15:22;7.10;;;3.03;;
8887;SDS011;4480;52.370;9.748;2022-10-03T07:18:17;7.43;;;3.40;;
8887;SDS011;4480;52.370;9.748;2022-10-03T07:21:23;9.47;;;2.30;;
8887;SDS011;4480;52.370;9.748;2022-10-03T07:24:06;10.57;;;2.33;;
8887;SDS011;4480;52.370;9.748;2022-10-03T07:27:01;14.50;;;2.50;;
8887;SDS011;4480;52.370;9.748;2022-10-03T07:35:44;9.03;;;2.37;;
8887;SDS011;4480;52.370;9.748;2022-10-03T07:41:45;9.13;;;2.20;;
8887;SDS011;4480;52.370;9.748;2022-10-03T07:44:42;5.80;;;2.70;;
8887;SDS011;4480;52.370;9.748;2022-10-03T07:53:42;4.80;;;2.37;;
8887;SDS011;4480;52.370;9.748;2022-10-03T07:56:46;8.43;;;2.03;;
8887;SDS011;4480;52.370;9.748;2022-10-03T08:05:53;9.10;;;2.30;;
8887;SDS011;4480;52.370;9.748;2022-10-03T08:08:54;8.20;;;3.23;;
8887;SDS011;4480;52.370;9.748;2022-10-03T08:11:49;9.07;;;2.13;;
8887;SDS011;4480;52.370;9.748;2022-10-03T08:14:41;8.93;;;2.67;;
8887;SDS011;4480;52.370;9.748;2022-10-03T08:17:18;8.73;;;1.83;;
8887;SDS011;4480;52.370;9.748;2022-10-03T08:20:20;9.80;;;2.53;;
8887;SDS011;4480;52.370;9.748;2022-10-03T08:23:17;7.63;;;2.63;;
8887;SDS011;4480;52.370;9.748;2022-10-03T08:26:04;9.30;;;2.20;;
8887;SDS011;4480;52.370;9.748;2022-10-03T08:28:45;8.23;;;2.40;;
8887;SDS011;4480;52.370;9.748;2022-10-03T08:31:46;7.00;;;2.50;;
8887;SDS011;4480;52.370;9.748;2022-10-03T08:37:54;7.20;;;1.70;;
8887;SDS011;4480;52.370;9.748;2022-10-03T08:41:24;6.73;;;1.90;;
8887;SDS011;4480;52.370;9.748;2022-10-03T08:44:41;4.50;;;1.93;;
8887;SDS011;4480;52.370;9.748;2022-10-03T08:47:38;6.93;;;2.57;;
8887;SDS011;4480;52.370;9.748;2022-10-03T08:50:35;10.40;;;2.97;;
8887;SDS011;4480;52.370;9.748;2022-10-03T08:53:26;5.20;;;1.50;;
8887;SDS011;4480;52.370;9.748;2022-10-03T08:56:13;8.00;;;2.40;;
8887;SDS011;4480;52.370;9.748;2022-10-03T08:59:00;9.60;;;2.63;;
8887;SDS011;4480;52.370;9.748;2022-10-03T09:01:56;6.50;;;2.03;;
8887;SDS011;4480;52.370;9.748;2022-10-03T09:04:53;6.00;;;1.97;;
8887;SDS011;4480;52.370;9.748;2022-10-03T09:07:48;7.60;;;2.23;;
8887;SDS011;4480;52.370;9.748;2022-10-03T09:10:33;11.40;;;2.03;;
8887;SDS011;4480;52.370;9.748;2022-10-03T09:13:14;11.80;;;2.13;;
8887;SDS011;4480;52.370;9.748;2022-10-03T09:16:18;9.80;;;2.33;;
8887;SDS011;4480;52.370;9.748;2022-10-03T09:19:06;10.40;;;2.20;;
8887;SDS011;4480;52.370;9.748;2022-10-03T09:27:54;9.93;;;2.20;;
8887;SDS011;4480;52.370;9.748;2022-10-03T09:30:49;5.17;;;1.60;;
8887;SDS011;4480;52.370;9.748;2022-10-03T09:36:40;5.63;;;1.90;;
8887;SDS011;4480;52.370;9.748;2022-10-03T09:46:02;6.80;;;1.27;;
8887;SDS011;4480;52.370;9.748;2022-10-03T09:52:01;9.10;;;1.83;;
8887;SDS011;4480;52.370;9.748;2022-10-03T09:54:51;4.43;;;1.63;;
8887;SDS011;4480;52.370;9.748;2022-10-03T10:00:24;9.67;;;1.70;;
8887;SDS011;4480;52.370;9.748;2022-10-03T10:06:03;7.50;;;2.17;;
8887;SDS011;4480;52.370;9.748;2022-10-03T10:09:00;8.47;;;2.00;;
8887;SDS011;4480;52.370;9.748;2022-10-03T10:15:00;4.67;;;1.30;;
8887;SDS011;4480;52.370;9.748;2022-10-03T10:23:53;6.33;;;2.00;;
8887;SDS011;4480;52.370;9.748;2022-10-03T10:29:52;7.80;;;1.90;;
8887;SDS011;4480;52.370;9.748;2022-10-03T10:45:42;5.13;;;1.87;;
8887;SDS011;4480;52.370;9.748;2022-10-03T10:51:34;8.40;;;2.10;;
8887;SDS011;4480;52.370;9.748;2022-10-03T10:58:03;7.80;;;1.50;;
8887;SDS011;4480;52.370;9.748;2022-10-03T11:01:12;7.50;;;2.10;;
8887;SDS011;4480;52.370;9.748;2022-10-03T11:04:11;3.00;;;1.30;;
8887;SDS011;4480;52.370;9.748;2022-10-03T11:07:03;5.70;;;1.77;;
8887;SDS011;4480;52.370;9.748;2022-10-03T11:09:45;9.00;;;2.30;;
8887;SDS011;4480;52.370;9.748;2022-10-03T11:18:37;6.77;;;2.83;;
8887;SDS011;4480;52.370;9.748;2022-10-03T11:27:42;5.50;;;1.33;;
8887;SDS011;4480;52.370;9.748;2022-10-03T11:30:49;4.97;;;1.97;;
8887;SDS011;4480;52.370;9.748;2022-10-03T11:39:33;4.07;;;1.23;;
8887;SDS011;4480;52.370;9.748;2022-10-03T11:42:09;6.20;;;1.90;;
8887;SDS011;4480;52.370;9.748;2022-10-03T11:44:48;5.03;;;1.60;;
8887;SDS011;4480;52.370;9.748;2022-10-03T11:47:29;3.40;;;1.20;;
8887;SDS011;4480;52.370;9.748;2022-10-03T11:50:32;5.27;;;1.50;;
8887;SDS011;4480;52.370;9.748;2022-10-03T11:53:10;4.97;;;1.27;;
8887;SDS011;4480;52.370;9.748;2022-10-03T11:55:41;4.43;;;1.30;;
8887;SDS011;4480;52.370;9.748;2022-10-03T11:58:17;5.20;;;1.77;;
8887;SDS011;4480;52.370;9.748;2022-10-03T12:01:20;7.30;;;2.03;;
8887;SDS011;4480;52.370;9.748;2022-10-03T12:03:56;4.37;;;1.60;;
8887;SDS011;4480;52.370;9.748;2022-10-03T12:06:35;6.57;;;3.07;;
8887;SDS011;4480;52.370;9.748;2022-10-03T12:09:33;3.83;;;1.70;;
8887;SDS011;4480;52.370;9.748;2022-10-03T12:12:10;7.63;;;1.60;;
8887;SDS011;4480;52.370;9.748;2022-10-03T12:14:44;5.90;;;1.93;;
8887;SDS011;4480;52.370;9.748;2022-10-03T12:17:15;8.20;;;2.50;;
8887;SDS011;4480;52.370;9.748;2022-10-03T12:19:52;5.30;;;1.43;;
8887;SDS011;4480;52.370;9.748;2022-10-03T12:22:32;5.20;;;1.60;;
8887;SDS011;4480;52.370;9.748;2022-10-03T12:25:22;4.23;;;2.10;;
8887;SDS011;4480;52.370;9.748;2022-10-03T12:27:59;5.93;;;1.20;;
8887;SDS011;4480;52.370;9.748;2022-10-03T12:30:36;3.70;;;2.00;;
8887;SDS011;4480;52.370;9.748;2022-10-03T12:33:11;5.77;;;1.80;;
8887;SDS011;4480;52.370;9.748;2022-10-03T12:35:52;4.50;;;1.57;;
8887;SDS011;4480;52.370;9.748;2022-10-03T12:38:40;7.20;;;1.57;;
8887;SDS011;4480;52.370;9.748;2022-10-03T12:41:20;3.80;;;1.50;;
8887;SDS011;4480;52.370;9.748;2022-10-03T12:43:55;5.10;;;1.20;;
8887;SDS011;4480;52.370;9.748;2022-10-03T12:46:41;2.60;;;1.23;;
8887;SDS011;4480;52.370;9.748;2022-10-03T12:49:16;6.27;;;1.60;;
8887;SDS011;4480;52.370;9.748;2022-10-03T12:51:50;3.87;;;1.40;;
8887;SDS011;4480;52.370;9.748;2022-10-03T12:54:24;3.73;;;1.20;;
8887;SDS011;4480;52.370;9.748;2022-10-03T12:57:09;7.00;;;3.03;;
8887;SDS011;4480;52.370;9.748;2022-10-03T13:00:01;4.70;;;1.43;;
8887;SDS011;4480;52.370;9.748;2022-10-03T13:02:31;3.30;;;1.30;;
8887;SDS011;4480;52.370;9.748;2022-10-03T13:08:02;4.60;;;1.53;;
8887;SDS011;4480;52.370;9.748;2022-10-03T13:10:43;3.70;;;1.80;;
8887;SDS011;4480;52.370;9.748;2022-10-03T13:13:19;6.07;;;1.37;;
8887;SDS011;4480;52.370;9.748;2022-10-03T13:16:04;8.70;;;1.60;;
8887;SDS011;4480;52.370;9.748;2022-10-03T13:18:42;3.93;;;1.23;;
8887;SDS011;4480;52.370;9.748;2022-10-03T13:21:26;2.90;;;1.10;;
8887;SDS011;4480;52.370;9.748;2022-10-03T13:24:07;4.33;;;1.40;;
8887;SDS011;4480;52.370;9.748;2022-10-03T13:26:48;3.70;;;1.13;;
8887;SDS011;4480;52.370;9.748;2022-10-03T13:29:23;6.50;;;1.30;;
8887;SDS011;4480;52.370;9.748;2022-10-03T13:32:03;3.60;;;1.27;;
8887;SDS011;4480;52.370;9.748;2022-10-03T13:34:44;2.97;;;1.30;;
8887;SDS011;4480;52.370;9.748;2022-10-03T13:38:07;2.63;;;1.20;;
8887;SDS011;4480;52.370;9.748;2022-10-03T13:40:46;4.43;;;1.53;;
8887;SDS011;4480;52.370;9.748;2022-10-03T13:43:20;4.40;;;1.40;;
8887;SDS011;4480;52.370;9.748;2022-10-03T13:45:52;3.83;;;1.20;;
8887;SDS011;4480;52.370;9.748;2022-10-03T13:48:22;3.53;;;1.20;;
8887;SDS011;4480;52.370;9.748;2022-10-03T13:50:52;2.50;;;1.03;;
8887;SDS011;4480;52.370;9.748;2022-10-03T13:56:16;2.73;;;1.17;;
8887;SDS011;4480;52.370;9.748;2022-10-03T13:58:52;2.63;;;1.27;;
8887;SDS011;4480;52.370;9.748;2022-10-03T14:04:22;3.47;;;1.10;;
8887;SDS011;4480;52.370;9.748;2022-10-03T14:07:01;2.00;;;0.90;;
8887;SDS011;4480;52.370;9.748;2022-10-03T14:12:32;4.17;;;1.40;;
8887;SDS011;4480;52.370;9.748;2022-10-03T14:18:06;3.63;;;1.27;;
8887;SDS011;4480;52.370;9.748;2022-10-03T14:21:07;3.10;;;1.10;;
8887;SDS011;4480;52.370;9.748;2022-10-03T14:23:45;5.57;;;1.40;;
8887;SDS011;4480;52.370;9.748;2022-10-03T14:26:18;4.10;;;1.40;;
8887;SDS011;4480;52.370;9.748;2022-10-03T14:28:54;4.73;;;1.17;;
8887;SDS011;4480;52.370;9.748;2022-10-03T14:31:29;2.93;;;0.90;;
8887;SDS011;4480;52.370;9.748;2022-10-03T14:34:03;3.47;;;1.50;;
8887;SDS011;4480;52.370;9.748;2022-10-03T14:36:40;4.70;;;1.27;;
8887;SDS011;4480;52.370;9.748;2022-10-03T14:39:15;3.50;;;1.20;;
8887;SDS011;4480;52.370;9.748;2022-10-03T14:42:06;4.30;;;1.90;;
8887;SDS011;4480;52.370;9.748;2022-10-03T14:44:57;3.93;;;1.23;;
8887;SDS011;4480;52.370;9.748;2022-10-03T14:47:32;6.50;;;1.50;;
8887;SDS011;4480;52.370;9.748;2022-10-03T14:50:03;2.67;;;1.10;;
8887;SDS011;4480;52.370;9.748;2022-10-03T14:52:32;2.53;;;1.20;;
8887;SDS011;4480;52.370;9.748;2022-10-03T14:55:06;5.70;;;1.50;;
8887;SDS011;4480;52.370;9.748;2022-10-03T14:57:39;7.30;;;2.13;;
8887;SDS011;4480;52.370;9.748;2022-10-03T15:00:21;6.40;;;1.47;;
8887;SDS011;4480;52.370;9.748;2022-10-03T15:02:52;5.37;;;1.13;;
8887;SDS011;4480;52.370;9.748;2022-10-03T15:05:21;5.27;;;1.53;;
8887;SDS011;4480;52.370;9.748;2022-10-03T15:08:16;2.20;;;0.90;;
8887;SDS011;4480;52.370;9.748;2022-10-03T15:10:45;3.93;;;1.20;;
8887;SDS011;4480;52.370;9.748;2022-10-03T15:13:14;3.10;;;1.30;;
8887;SDS011;4480;52.370;9.748;2022-10-03T15:15:43;4.93;;;1.93;;
8887;SDS011;4480;52.370;9.748;2022-10-03T15:18:12;6.43;;;1.73;;
8887;SDS011;4480;52.370;9.748;2022-10-03T15:20:43;3.17;;;1.03;;
8887;SDS011;4480;52.370;9.748;2022-10-03T15:23:17;4.43;;;0.93;;
8887;SDS011;4480;52.370;9.748;2022-10-03T15:25:46;2.50;;;1.70;;
8887;SDS011;4480;52.370;9.748;2022-10-03T15:28:18;5.50;;;1.30;;
8887;SDS011;4480;52.370;9.748;2022-10-03T15:30:48;5.00;;;1.43;;
8887;SDS011;4480;52.370;9.748;2022-10-03T15:33:18;4.20;;;1.20;;
8887;SDS011;4480;52.370;9.748;2022-10-03T15:35:55;2.50;;;0.80;;
8887;SDS011;4480;52.370;9.748;2022-10-03T15:38:28;5.77;;;1.03;;
8887;SDS011;4480;52.370;9.748;2022-10-03T15:41:05;3.10;;;1.00;;
8887;SDS011;4480;52.370;9.748;2022-10-03T15:43:35;4.20;;;1.43;;
8887;SDS011;4480;52.370;9.748;2022-10-03T15:46:11;6.17;;;1.47;;
8887;SDS011;4480;52.370;9.748;2022-10-03T15:48:44;2.20;;;1.00;;
8887;SDS011;4480;52.370;9.748;2022-10-03T15:51:17;5.03;;;1.33;;
8887;SDS011;4480;52.370;9.748;2022-10-03T15:53:50;4.07;;;1.53;;
8887;SDS011;4480;52.370;9.748;2022-10-03T15:56:22;6.73;;;1.50;;
8887;SDS011;4480;52.370;9.748;2022-10-03T15:58:54;3.33;;;1.30;;
8887;SDS011;4480;52.370;9.748;2022-10-03T16:01:25;3.37;;;1.20;;
8887;SDS011;4480;52.370;9.748;2022-10-03T16:03:53;4.00;;;1.37;;
8887;SDS011;4480;52.370;9.748;2022-10-03T16:06:27;5.37;;;1.50;;
8887;SDS011;4480;52.370;9.748;2022-10-03T16:08:59;3.53;;;1.10;;
8887;SDS011;4480;52.370;9.748;2022-10-03T16:11:31;2.40;;;1.20;;
8887;SDS011;4480;52.370;9.748;2022-10-03T16:14:09;2.83;;;1.53;;
8887;SDS011;4480;52.370;9.748;2022-10-03T16:16:44;3.83;;;1.13;;
8887;SDS011;4480;52.370;9.748;2022-10-03T16:19:29;4.07;;;1.43;;
8887;SDS011;4480;52.370;9.748;2022-10-03T16:22:09;3.23;;;1.40;;
8887;SDS011;4480;52.370;9.748;2022-10-03T16:24:42;2.63;;;1.00;;
8887;SDS011;4480;52.370;9.748;2022-10-03T16:27:23;5.90;;;1.40;;
8887;SDS011;4480;52.370;9.748;2022-10-03T16:30:09;4.10;;;1.30;;
8887;SDS011;4480;52.370;9.748;2022-10-03T16:32:42;3.43;;;1.10;;
8887;SDS011;4480;52.370;9.748;2022-10-03T16:35:20;6.57;;;1.37;;
8887;SDS011;4480;52.370;9.748;2022-10-03T16:37:59;3.93;;;1.43;;
8887;SDS011;4480;52.370;9.748;2022-10-03T16:40:28;2.63;;;1.00;;
8887;SDS011;4480;52.370;9.748;2022-10-03T16:42:56;4.07;;;1.30;;
8887;SDS011;4480;52.370;9.748;2022-10-03T16:45:25;3.60;;;1.20;;
8887;SDS011;4480;52.370;9.748;2022-10-03T16:47:55;5.47;;;1.70;;
8887;SDS011;4480;52.370;9.748;2022-10-03T16:50:43;4.40;;;1.73;;
8887;SDS011;4480;52.370;9.748;2022-10-03T16:53:15;2.70;;;1.60;;
8887;SDS011;4480;52.370;9.748;2022-10-03T16:55:44;6.20;;;1.73;;
8887;SDS011;4480;52.370;9.748;2022-10-03T16:58:16;5.90;;;1.60;;
8887;SDS011;4480;52.370;9.748;2022-10-03T17:00:48;3.13;;;1.50;;
8887;SDS011;4480;52.370;9.748;2022-10-03T17:03:21;5.50;;;1.53;;
8887;SDS011;4480;52.370;9.748;2022-10-03T17:05:50;5.13;;;1.30;;
8887;SDS011;4480;52.370;9.748;2022-10-03T17:08:22;3.93;;;1.50;;
8887;SDS011;4480;52.370;9.748;2022-10-03T17:10:52;4.10;;;2.17;;
8887;SDS011;4480;52.370;9.748;2022-10-03T17:13:21;3.77;;;1.67;;
8887;SDS011;4480;52.370;9.748;2022-10-03T17:15:53;3.70;;;1.70;;
8887;SDS011;4480;52.370;9.748;2022-10-03T17:18:26;5.13;;;1.60;;
8887;SDS011;4480;52.370;9.748;2022-10-03T17:20:59;6.53;;;2.13;;
8887;SDS011;4480;52.370;9.748;2022-10-03T17:23:36;5.93;;;1.90;;
8887;SDS011;4480;52.370;9.748;2022-10-03T17:26:06;6.03;;;1.93;;
8887;SDS011;4480;52.370;9.748;2022-10-03T17:28:37;5.50;;;2.10;;
8887;SDS011;4480;52.370;9.748;2022-10-03T17:31:21;8.33;;;1.70;;
8887;SDS011;4480;52.370;9.748;2022-10-03T17:33:56;6.70;;;2.53;;
8887;SDS011;4480;52.370;9.748;2022-10-03T17:39:44;3.93;;;1.93;;
8887;SDS011;4480;52.370;9.748;2022-10-03T17:42:24;3.47;;;1.60;;
8887;SDS011;4480;52.370;9.748;2022-10-03T17:45:10;1.50;;;1.33;;
8887;SDS011;4480;52.370;9.748;2022-10-03T17:47:52;5.67;;;2.00;;
8887;SDS011;4480;52.370;9.748;2022-10-03T17:50:23;6.70;;;1.80;;
8887;SDS011;4480;52.370;9.748;2022-10-03T17:52:55;7.20;;;2.03;;
8887;SDS011;4480;52.370;9.748;2022-10-03T17:55:28;8.30;;;1.90;;
8887;SDS011;4480;52.370;9.748;2022-10-03T17:58:01;4.70;;;2.23;;
8887;SDS011;4480;52.370;9.748;2022-10-03T18:00:32;5.53;;;2.03;;
8887;SDS011;4480;52.370;9.748;2022-10-03T18:03:03;2.47;;;2.10;;
8887;SDS011;4480;52.370;9.748;2022-10-03T18:05:33;3.00;;;1.87;;
8887;SDS011;4480;52.370;9.748;2022-10-03T18:08:05;3.20;;;1.57;;
8887;SDS011;4480;52.370;9.748;2022-10-03T18:10:40;3.47;;;2.27;;
8887;SDS011;4480;52.370;9.748;2022-10-03T18:13:14;2.87;;;1.57;;
8887;SDS011;4480;52.370;9.748;2022-10-03T18:15:59;6.87;;;2.57;;
8887;SDS011;4480;52.370;9.748;2022-10-03T18:19:07;4.80;;;1.90;;
8887;SDS011;4480;52.370;9.748;2022-10-03T18:21:50;5.63;;;1.80;;
8887;SDS011;4480;52.370;9.748;2022-10-03T18:24:36;4.27;;;1.97;;
8887;SDS011;4480;52.370;9.748;2022-10-03T18:27:19;4.33;;;2.10;;
8887;SDS011;4480;52.370;9.748;2022-10-03T18:30:12;7.40;;;2.53;;
8887;SDS011;4480;52.370;9.748;2022-10-03T18:32:42;5.10;;;2.30;;
8887;SDS011;4480;52.370;9.748;2022-10-03T18:35:11;6.07;;;2.13;;
8887;SDS011;4480;52.370;9.748;2022-10-03T18:37:52;7.63;;;2.30;;
8887;SDS011;4480;52.370;9.748;2022-10-03T18:40:27;3.23;;;2.30;;
8887;SDS011;4480;52.370;9.748;2022-10-03T18:42:57;4.67;;;2.00;;
8887;SDS011;4480;52.370;9.748;2022-10-03T18:45:26;6.93;;;2.20;;
8887;SDS011;4480;52.370;9.748;2022-10-03T18:47:58;7.97;;;2.53;;
8887;SDS011;4480;52.370;9.748;2022-10-03T18:50:33;8.07;;;2.83;;
8887;SDS011;4480;52.370;9.748;2022-10-03T18:53:13;3.60;;;1.50;;
8887;SDS011;4480;52.370;9.748;2022-10-03T18:55:43;8.47;;;2.40;;
8887;SDS011;4480;52.370;9.748;2022-10-03T18:58:18;4.37;;;2.10;;
8887;SDS011;4480;52.370;9.748;2022-10-03T19:00:49;4.00;;;1.77;;
8887;SDS011;4480;52.370;9.748;2022-10-03T19:03:21;2.40;;;1.73;;
8887;SDS011;4480;52.370;9.748;2022-10-03T19:05:52;3.33;;;1.90;;
8887;SDS011;4480;52.370;9.748;2022-10-03T19:08:23;6.03;;;2.10;;
8887;SDS011;4480;52.370;9.748;2022-10-03T19:10:52;2.00;;;1.80;;
8887;SDS011;4480;52.370;9.748;2022-10-03T19:13:28;5.70;;;3.23;;
8887;SDS011;4480;52.370;9.748;2022-10-03T19:19:00;4.77;;;2.90;;
8887;SDS011;4480;52.370;9.748;2022-10-03T19:21:33;7.47;;;2.20;;
8887;SDS011;4480;52.370;9.748;2022-10-03T19:24:03;5.57;;;1.97;;
8887;SDS011;4480;52.370;9.748;2022-10-03T19:26:36;8.10;;;3.33;;